Last 24 Hours

Pinyon

10 Minute Data | America/Los_Angeles
as of 9/4/26 4:32 PM PDT
Date & Time Temp (°F) Dew Pt (°F) RH (%) Wind Spd (mph) Wind Dir (°) Wind Gust (mph) Wind Gst Dir (°) Daily Max Temp (°F) Daily Min Temp (°F)
9/4/26 - 1630 79.3 40.7 25 15.3 N | 360 22.4 N | 0 82.9 62.2
9/4/26 - 1620 79.7 40.3 25 13.2 N | 355 20.8 NNW | 346 82.9 62.2
9/4/26 - 1610 80.0 40.0 24 13.4 NNW | 348 23.0 NNW | 333 82.9 62.2
9/4/26 - 1600 79.8 40.2 24 13.6 N | 360 22.2 N | 1 82.9 62.2
9/4/26 - 1550 80.3 39.8 24 13.2 NNW | 348 22.1 N | 3 82.9 62.2
9/4/26 - 1540 80.0 39.5 24 11.1 N | 3 21.6 NW | 324 82.9 62.2
9/4/26 - 1530 80.2 38.6 23 13.0 NNW | 345 24.8 NNW | 346 82.9 62.2
9/4/26 - 1520 81.0 38.1 22 12.6 NNW | 347 22.7 N | 351 82.9 62.2
9/4/26 - 1510 81.2 37.5 21 11.9 N | 350 22.4 N | 3 82.9 62.2
9/4/26 - 1500 81.1 36.2 20 9.8 NNW | 339 21.7 NNW | 336 82.9 62.2
9/4/26 - 1450 81.6 36.6 20 11.2 NNW | 336 19.4 N | 350 82.9 62.2
9/4/26 - 1440 81.8 33.6 18 10.2 NNW | 338 18.0 NW | 324 82.9 62.2
9/4/26 - 1430 81.7 32.0 16 11.1 NNW | 331 21.0 NW | 320 82.9 62.2
9/4/26 - 1420 81.0 33.5 18 11.5 NNW | 333 22.7 NNW | 336 82.9 62.2
9/4/26 - 1410 79.6 34.2 19 8.4 NNW | 348 15.4 E | 83 82.9 62.2
9/4/26 - 1400 76.2 37.7 25 3.7 SE | 141 9.3 ESE | 110 82.9 62.2
9/4/26 - 1350 79.0 36.9 22 4.9 SE | 128 10.5 SE | 136 82.9 62.2
9/4/26 - 1340 81.7 33.7 18 9.0 N | 352 17.3 NNE | 28 82.9 62.2
9/4/26 - 1330 80.5 34.1 19 10.4 N | 5 20.2 N | 3 80.9 62.2
9/4/26 - 1320 80.1 33.4 18 11.4 N | 354 20.1 NNW | 335 80.9 62.2
9/4/26 - 1310 80.2 32.4 18 14.2 N | 359 26.9 N | 7 80.9 62.2
9/4/26 - 1300 79.5 31.1 17 13.6 N | 351 20.4 NNW | 345 80.0 62.2
9/4/26 - 1250 79.1 29.9 17 14.0 N | 349 25.7 N | 353 79.7 62.2
9/4/26 - 1240 79.2 29.0 16 15.1 N | 357 23.6 N | 0 79.7 62.2
9/4/26 - 1230 78.6 28.2 16 14.5 N | 356 24.6 N | 0 79.4 62.2
9/4/26 - 1220 78.2 27.9 16 14.9 N | 350 28.1 N | 354 79.1 62.2
9/4/26 - 1210 78.2 27.5 15 13.6 NNW | 338 23.9 NNW | 334 79.1 62.2
9/4/26 - 1200 77.3 27.2 16 15.7 NNW | 346 22.6 NW | 321 78.2 62.2
9/4/26 - 1150 77.4 28.1 16 16.2 NNW | 333 24.4 NNW | 337 78.2 62.2
9/4/26 - 1140 77.6 26.9 15 14.6 NNW | 330 23.5 NNW | 346 78.2 62.2
9/4/26 - 1130 77.8 27.3 15 13.5 NNW | 328 22.3 NNW | 332 78.2 62.2
9/4/26 - 1120 77.7 26.6 15 13.2 NNW | 348 21.9 N | 349 78.2 62.2
9/4/26 - 1110 77.4 26.9 16 14.6 NNW | 338 21.0 NNW | 332 77.9 62.2
9/4/26 - 1100 76.7 27.7 16 14.0 NW | 325 21.6 NNW | 334 77.4 62.2
9/4/26 - 1050 76.5 27.2 16 14.4 NNW | 338 23.9 NNW | 340 77.4 62.2
9/4/26 - 1040 76.4 26.4 16 13.8 NNW | 333 21.5 NW | 311 77.4 62.2
9/4/26 - 1030 76.3 27.0 16 12.1 NNW | 336 17.8 NNW | 335 77.0 62.2
9/4/26 - 1020 75.6 27.2 17 12.5 NNW | 332 20.5 NNW | 337 76.3 62.2
9/4/26 - 1010 75.6 28.0 17 12.3 NNW | 331 22.7 NW | 317 76.3 62.2
9/4/26 - 1000 75.0 29.4 19 12.6 NNW | 343 19.6 NNW | 341 75.3 62.2
9/4/26 - 0950 74.7 31.2 20 14.1 NNW | 335 19.6 NNW | 346 75.2 62.2
9/4/26 - 0940 74.2 31.7 21 13.3 NNW | 336 19.7 NNW | 337 74.6 62.2
9/4/26 - 0930 73.8 32.1 22 13.7 NNW | 333 19.7 NNW | 335 74.0 62.2
9/4/26 - 0920 73.4 32.7 22 12.8 NNW | 333 18.8 NNW | 328 73.8 62.2
9/4/26 - 0910 72.8 32.4 23 13.9 NNW | 334 20.0 NNW | 345 73.2 62.2
9/4/26 - 0900 72.3 32.8 23 14.8 NNW | 333 23.2 NNW | 333 72.6 62.2
9/4/26 - 0850 72.0 33.5 24 13.9 NNW | 329 21.2 NNW | 332 72.5 62.2
9/4/26 - 0840 71.6 34.0 25 13.8 NNW | 328 21.2 NW | 320 72.0 62.2
9/4/26 - 0830 70.9 34.4 26 14.6 NW | 324 19.9 NW | 318 71.1 62.2
9/4/26 - 0820 70.4 34.8 27 14.7 NNW | 327 21.3 NNW | 327 70.7 62.2
9/4/26 - 0810 69.8 34.9 28 14.1 NW | 325 20.8 NW | 325 70.1 62.2
9/4/26 - 0800 69.0 34.6 28 14.9 NNW | 330 19.9 NNW | 328 69.4 62.2
9/4/26 - 0750 68.3 34.1 28 15.8 NNW | 330 21.6 NNW | 330 68.6 62.2
9/4/26 - 0740 67.7 33.4 28 16.8 NNW | 333 24.1 NNW | 334 68.0 62.2
9/4/26 - 0730 66.9 31.4 27 16.9 NNW | 334 22.9 NNW | 338 67.4 62.2
9/4/26 - 0720 65.9 26.9 23 17.4 NNW | 336 23.5 NNW | 333 66.4 62.2
9/4/26 - 0710 64.9 23.8 21 17.0 NNW | 339 24.4 NW | 326 65.3 62.2
9/4/26 - 0700 64.5 25.8 23 16.1 NNW | 342 22.1 NNW | 338 64.8 62.2
9/4/26 - 0650 64.5 26.4 23 17.2 NNW | 341 23.3 NNW | 345 64.8 62.2
9/4/26 - 0640 64.4 25.7 23 18.3 NNW | 339 25.0 NW | 320 64.8 62.2
9/4/26 - 0630 63.9 27.2 25 17.8 NNW | 335 24.5 NNW | 338 64.8 62.2
9/4/26 - 0620 63.4 29.2 27 16.7 NNW | 329 22.9 NNW | 329 64.8 62.2
9/4/26 - 0610 63.2 30.9 30 17.4 NNW | 330 25.5 NNW | 342 64.8 62.2
9/4/26 - 0600 62.8 31.4 31 18.5 NNW | 330 26.2 NNW | 327 64.8 62.2
9/4/26 - 0550 62.6 31.7 31 18.1 NNW | 328 26.2 NNW | 334 64.8 62.2
9/4/26 - 0540 62.5 32.0 32 18.7 NNW | 328 25.4 NW | 321 64.8 62.2
9/4/26 - 0530 62.3 32.7 33 18.7 NNW | 328 27.1 NW | 322 64.8 62.2
9/4/26 - 0520 62.6 33.6 34 20.1 NNW | 329 30.0 NNW | 340 64.8 62.5
9/4/26 - 0510 62.8 34.1 34 19.3 NNW | 331 28.4 NW | 320 64.8 62.7
9/4/26 - 0500 63.1 34.5 34 19.1 NNW | 328 28.1 NNW | 328 64.8 62.8
9/4/26 - 0450 63.2 34.7 34 19.7 NNW | 328 29.4 NNW | 333 64.8 63.0
9/4/26 - 0440 63.3 34.5 34 19.3 NNW | 327 28.4 NNW | 341 64.8 63.2
9/4/26 - 0430 63.7 34.4 33 19.5 NW | 326 28.2 NNW | 329 64.8 63.3
9/4/26 - 0420 63.6 34.0 33 18.5 NW | 326 26.7 NNW | 334 64.8 63.3
9/4/26 - 0410 63.7 33.5 32 17.7 NW | 322 25.4 NW | 320 64.8 63.3
9/4/26 - 0400 63.4 32.5 31 17.2 NW | 321 25.1 NNW | 332 64.8 63.3
9/4/26 - 0350 63.4 31.9 31 16.6 NW | 323 23.4 NW | 323 64.8 63.3
9/4/26 - 0340 63.6 31.3 30 18.2 NW | 326 25.4 NNW | 338 64.8 63.4
9/4/26 - 0330 63.8 30.6 29 17.2 NNW | 329 24.3 NW | 320 64.8 63.4
9/4/26 - 0320 64.4 30.6 28 17.6 NNW | 330 25.1 NNW | 334 64.8 63.4
9/4/26 - 0310 64.5 30.4 28 18.3 NNW | 331 26.4 NNW | 343 64.8 63.4
9/4/26 - 0300 64.7 30.9 28 19.5 NNW | 332 27.5 NNW | 342 64.8 63.4
9/4/26 - 0250 64.5 32.3 30 18.3 NNW | 333 27.6 NW | 313 64.7 63.4
9/4/26 - 0240 64.5 33.5 31 17.9 NNW | 329 27.4 NNW | 338 64.7 63.4
9/4/26 - 0230 64.4 34.6 33 18.6 NNW | 332 28.2 NNW | 339 64.6 63.4
9/4/26 - 0220 64.3 35.5 34 17.6 NNW | 331 24.9 SE | 134 64.5 63.4
9/4/26 - 0210 64.3 36.4 35 17.8 NNW | 331 24.8 N | 352 64.5 63.4
9/4/26 - 0200 64.2 38.4 39 19.0 NNW | 333 26.1 NNW | 343 64.4 63.4
9/4/26 - 0150 63.9 40.0 41 18.2 NNW | 336 27.0 NNW | 330 64.4 63.4
9/4/26 - 0140 63.9 40.4 42 18.6 NNW | 337 25.2 NNW | 341 64.4 63.4
9/4/26 - 0130 63.6 40.5 43 17.4 NNW | 340 24.9 NNW | 330 64.4 63.4
9/4/26 - 0120 63.6 41.1 44 16.2 NNW | 342 22.3 NNW | 345 64.4 63.4
9/4/26 - 0110 64.2 41.5 43 19.2 NNW | 341 28.1 N | 354 64.4 63.9
9/4/26 - 0100 64.2 41.9 44 18.6 NNW | 343 27.0 NNW | 346 79.9 62.5
9/4/26 - 0050 64.1 41.5 44 18.1 NNW | 343 28.9 N | 354 79.9 62.5
9/4/26 - 0040 63.1 41.7 45 16.6 NNW | 346 23.1 NNW | 344 79.9 62.5
9/4/26 - 0030 62.6 43.0 49 16.9 N | 351 23.0 N | 354 79.9 62.5
9/4/26 - 0020 62.6 43.1 49 16.7 NNW | 348 22.0 N | 354 79.9 62.5
9/4/26 - 0010 62.9 42.3 47 14.7 NNW | 342 21.2 NNW | 340 79.9 62.7
9/4/26 - 0000 63.0 42.9 48 14.6 NNW | 338 19.7 NNW | 331 79.9 62.8
9/3/26 - 2350 63.5 43.2 47 15.8 NNW | 334 21.7 NNW | 334 79.9 63.0
9/3/26 - 2340 64.1 42.7 46 16.1 NNW | 337 24.2 NNW | 335 79.9 63.0
9/3/26 - 2330 64.6 42.2 44 14.1 NNW | 331 20.2 NNW | 337 79.9 63.0
9/3/26 - 2320 64.5 43.1 46 14.3 NNW | 333 20.6 NW | 318 79.9 63.0
9/3/26 - 2310 65.1 42.7 44 14.3 NNW | 332 21.1 NW | 325 79.9 63.0
9/3/26 - 2300 65.4 42.3 43 13.5 NW | 325 20.0 NNW | 340 79.9 63.0
9/3/26 - 2250 65.3 42.8 44 12.9 NNW | 331 18.8 NNW | 331 79.9 63.0
9/3/26 - 2240 66.1 42.1 42 13.5 NNW | 332 18.8 NNW | 336 79.9 63.0
9/3/26 - 2230 66.8 40.9 39 13.3 NNW | 328 20.0 NNW | 335 79.9 63.0
9/3/26 - 2220 66.9 40.6 38 13.4 NNW | 327 20.0 NW | 325 79.9 63.0
9/3/26 - 2210 66.5 41.2 40 14.3 NNW | 329 20.0 NNW | 329 79.9 63.0
9/3/26 - 2200 66.9 41.2 39 14.0 NNW | 328 19.7 NW | 324 79.9 63.0
9/3/26 - 2150 67.5 40.9 38 14.6 NNW | 332 20.7 NW | 323 79.9 63.0
9/3/26 - 2140 68.4 38.6 34 14.9 NNW | 329 19.9 NNW | 337 79.9 63.0
9/3/26 - 2130 68.7 37.8 32 15.1 NW | 326 21.8 NW | 313 79.9 63.0
9/3/26 - 2120 68.5 38.2 33 16.1 NW | 325 21.9 NW | 323 79.9 63.0
9/3/26 - 2110 68.6 37.4 32 14.0 NNW | 327 22.8 NW | 322 79.9 63.0
9/3/26 - 2100 68.7 37.3 32 13.7 NNW | 328 19.2 NNW | 338 79.9 63.0
9/3/26 - 2050 68.6 37.5 32 13.0 NNW | 328 17.8 NW | 325 79.9 63.0
9/3/26 - 2040 68.7 38.2 33 13.3 NW | 326 19.8 NW | 320 79.9 63.0
9/3/26 - 2030 68.6 38.8 34 14.6 NW | 322 20.8 NNW | 328 79.9 63.0
9/3/26 - 2020 68.2 40.1 36 13.6 NW | 319 21.0 NW | 308 79.9 63.0
9/3/26 - 2010 67.7 42.8 40 15.2 NW | 318 22.9 NW | 320 79.9 63.0
9/3/26 - 2000 67.6 44.0 43 14.7 NW | 316 24.6 NW | 324 79.9 63.0
9/3/26 - 1950 67.8 44.4 43 17.2 NW | 323 24.1 NNW | 336 79.9 63.0
9/3/26 - 1940 68.3 43.9 41 17.0 NW | 326 26.4 NNW | 328 79.9 63.0
9/3/26 - 1930 69.0 42.9 39 17.3 NNW | 333 22.3 NNW | 346 79.9 63.0
9/3/26 - 1920 69.6 41.6 36 16.6 NNW | 334 23.2 NW | 326 79.9 63.0
9/3/26 - 1910 70.2 40.8 34 16.0 NNW | 336 23.8 NNW | 332 79.9 63.0
9/3/26 - 1900 70.8 40.7 34 15.2 NNW | 336 21.3 NNW | 336 79.9 63.0
9/3/26 - 1850 71.6 41.8 34 15.8 NNW | 337 22.3 NNW | 344 79.9 63.0
9/3/26 - 1840 72.1 42.8 35 15.3 NNW | 334 21.0 NW | 325 79.9 63.0
9/3/26 - 1830 72.8 43.0 34 15.0 NNW | 332 21.8 NNW | 344 79.9 63.0
9/3/26 - 1820 73.2 43.2 34 16.5 NNW | 340 24.6 NNW | 339 79.9 63.0
9/3/26 - 1810 74.0 42.7 32 17.3 NNW | 339 23.9 NW | 324 79.9 63.0
9/3/26 - 1800 74.6 42.5 32 16.5 NNW | 339 24.8 NNW | 347 79.9 63.0
9/3/26 - 1750 75.0 42.3 31 17.2 NNW | 332 24.9 NNW | 327 79.9 63.0
9/3/26 - 1740 75.5 41.3 29 17.4 NNW | 332 25.5 NNW | 336 79.9 63.0
9/3/26 - 1730 76.0 40.5 28 16.6 NNW | 336 24.0 N | 352 79.9 63.0
9/3/26 - 1720 76.5 39.5 26 16.9 NNW | 332 24.3 NNW | 329 79.9 63.0
9/3/26 - 1710 76.6 38.4 25 16.7 NNW | 343 23.8 NW | 326 79.9 63.0
9/3/26 - 1700 77.2 37.4 24 16.4 NNW | 338 24.1 NNW | 332 79.9 63.0
9/3/26 - 1650 77.5 36.2 22 16.0 NNW | 335 24.0 NNW | 340 79.9 63.0
9/3/26 - 1640 77.6 36.2 22 16.1 NNW | 335 24.5 NW | 324 79.9 63.0
9/3/26 - 1630 78.0 36.0 22 15.3 NNW | 334 23.0 NNW | 335 79.9 63.0
Max 81.8 44.4 49 20.1 - 30.0 - 82.9 63.9
Avg 70.6 35.7 29 15.2 - 22.9 - - -
Min 62.3 23.8 15 3.7 - 9.3 - 64.4 62.2